Time;durP1;ratioP1;P1;durP2;ratioP2;P2;SDS_P1;SDS_P2;PMS_P1;PMS_P2;Temp;Humidity;BMP_temperature;BMP_pressure;BME280_temperature;BME280_humidity;BME280_pressure;Samples;Min_cycle;Max_cycle;Signal;HPM_P1;HPM_P2
2022/08/25 00:00:46;;;;;;;3.90;3.60;;;;;;;21.14;71.00;98729.47;4906060;28;103650;-71
2022/08/25 00:03:17;;;;;;;3.83;3.30;;;;;;;21.24;71.07;98729.25;4928392;28;103301;-71
2022/08/25 00:05:48;;;;;;;3.60;3.30;;;;;;;21.07;71.43;98723.13;4922986;28;102815;-71
2022/08/25 00:08:18;;;;;;;5.20;4.80;;;;;;;20.78;72.32;98729.13;4930244;28;103850;-71
2022/08/25 00:10:50;;;;;;;4.37;3.90;;;;;;;20.91;71.45;98727.72;4923837;28;103961;-71
2022/08/25 00:13:31;;;;;;;3.97;3.00;;;;;;;21.06;70.87;98726.78;4920069;28;103218;-71
2022/08/25 00:16:00;;;;;;;3.65;3.25;;;;;;;20.96;70.97;98715.44;4920114;28;102654;-70
2022/08/25 00:18:29;;;;;;;4.17;3.50;;;;;;;20.45;73.22;98718.69;4924322;28;103770;-71
2022/08/25 00:20:59;;;;;;;3.60;3.30;;;;;;;20.83;72.05;98720.53;4923587;28;104015;-71
2022/08/25 00:23:29;;;;;;;3.88;3.30;;;;;;;20.50;73.74;98721.66;4926110;28;103265;-71
2022/08/25 00:26:01;;;;;;;3.70;3.30;;;;;;;20.50;73.68;98716.31;4925981;28;102978;-71
2022/08/25 00:28:31;;;;;;;3.78;3.47;;;;;;;20.64;73.45;98710.22;4922989;28;104305;-71
2022/08/25 00:31:00;;;;;;;3.60;3.30;;;;;;;20.86;72.64;98711.28;4929929;28;103272;-71
2022/08/25 00:33:31;;;;;;;3.92;3.53;;;;;;;20.53;74.27;98713.28;4921360;28;103203;-72
2022/08/25 00:36:01;;;;;;;3.92;3.53;;;;;;;20.62;73.60;98717.63;4926364;28;102576;-71
2022/08/25 00:38:31;;;;;;;4.10;3.70;;;;;;;20.91;72.45;98717.84;4933825;28;102586;-71
2022/08/25 00:41:09;;;;;;;3.17;2.92;;;;;;;21.39;69.70;98717.53;4930588;28;104136;-71
2022/08/25 00:43:46;;;;;;;3.80;3.40;;;;;;;21.02;71.62;98725.50;4927569;28;103299;-71
2022/08/25 00:46:20;;;;;;;4.07;3.65;;;;;;;20.83;72.04;98715.16;4946356;28;102930;-71
2022/08/25 00:48:54;;;;;;;3.97;3.08;;;;;;;21.22;71.09;98720.53;4940361;28;102820;-71
2022/08/25 00:51:34;;;;;;;3.90;3.50;;;;;;;20.68;73.61;98719.59;4923292;28;104065;-71
2022/08/25 00:54:04;;;;;;;4.50;4.03;;;;;;;20.07;75.89;98710.34;4930130;28;104826;-71
2022/08/25 00:56:36;;;;;;;4.07;3.67;;;;;;;20.07;75.61;98714.91;4928953;28;102680;-72
2022/08/25 00:59:06;;;;;;;2.70;2.50;;;;;;;20.94;71.41;98717.44;4925432;28;102717;-69
2022/08/25 01:01:35;;;;;;;6.00;3.30;;;;;;;21.24;69.77;98713.97;4919902;28;103458;-71
2022/08/25 01:04:06;;;;;;;2.30;2.10;;;;;;;21.43;68.23;98709.13;4924604;28;103124;-71
2022/08/25 01:06:39;;;;;;;3.63;3.30;;;;;;;21.38;68.52;98702.47;4889560;28;102718;-72
2022/08/25 01:09:09;;;;;;;3.58;3.28;;;;;;;21.10;70.51;98711.19;4891398;28;102748;-71
2022/08/25 01:11:41;;;;;;;4.40;3.30;;;;;;;21.21;69.62;98708.94;4882662;28;103255;-71
2022/08/25 01:14:16;;;;;;;3.47;3.17;;;;;;;21.30;69.83;98702.53;4883226;28;103291;-71
2022/08/25 01:16:45;;;;;;;4.00;3.70;;;;;;;20.66;72.19;98702.84;4887546;28;103166;-71
2022/08/25 01:19:19;;;;;;;4.35;3.95;;;;;;;20.04;75.10;98697.28;4887190;28;104291;-71
2022/08/25 01:21:53;;;;;;;4.50;4.10;;;;;;;19.79;76.81;98703.69;4894336;28;103469;-71
2022/08/25 01:24:30;;;;;;;4.20;3.80;;;;;;;20.36;74.42;98703.59;4886112;28;103786;-72
2022/08/25 01:27:00;;;;;;;4.65;4.10;;;;;;;20.07;75.72;98706.84;4888675;28;102649;-71
2022/08/25 01:29:29;;;;;;;4.40;4.03;;;;;;;19.98;76.11;98703.34;4881066;28;102709;-71
2022/08/25 01:32:01;;;;;;;4.30;3.90;;;;;;;19.78;77.60;98707.38;4886776;28;103292;-71
2022/08/25 01:34:31;;;;;;;4.60;4.20;;;;;;;19.76;77.34;98708.56;4890662;28;103215;-72
2022/08/25 01:37:03;;;;;;;4.10;3.78;;;;;;;19.95;76.97;98709.03;4888064;28;103018;-71
2022/08/25 01:39:35;;;;;;;3.92;3.63;;;;;;;20.22;76.06;98707.81;4889347;28;103545;-71
2022/08/25 01:42:24;;;;;;;5.17;3.90;;;;;;;20.31;75.46;98709.50;4890253;28;104373;-71
2022/08/25 01:44:54;;;;;;;4.47;4.07;;;;;;;20.24;75.71;98708.47;4888513;28;103241;-71
2022/08/25 01:47:24;;;;;;;4.30;3.90;;;;;;;20.34;74.99;98714.53;4887318;28;103014;-71
2022/08/25 01:49:54;;;;;;;4.40;4.00;;;;;;;19.93;77.49;98711.03;4888726;28;102646;-71
2022/08/25 01:52:29;;;;;;;4.90;4.50;;;;;;;19.74;78.17;98711.41;4890219;28;104253;-71
2022/08/25 01:54:59;;;;;;;5.43;4.28;;;;;;;19.64;78.56;98708.91;4885863;28;103330;-71
2022/08/25 01:57:29;;;;;;;4.80;4.18;;;;;;;19.47;79.85;98711.72;4891676;28;102621;-69
2022/08/25 01:59:59;;;;;;;4.80;4.40;;;;;;;19.37;80.19;98708.34;4887647;28;104049;-71
2022/08/25 02:02:41;;;;;;;4.97;4.50;;;;;;;19.36;80.32;98712.88;4878565;28;104139;-71
2022/08/25 02:05:12;;;;;;;4.50;4.10;;;;;;;19.46;79.88;98705.53;4901307;28;102727;-71
2022/08/25 02:07:43;;;;;;;4.97;4.45;;;;;;;19.64;79.02;98708.06;4922771;28;102683;-71
2022/08/25 02:10:13;;;;;;;4.60;4.20;;;;;;;19.65;79.75;98712.38;4923284;28;104395;-71
2022/08/25 02:12:43;;;;;;;4.30;3.95;;;;;;;19.78;78.47;98710.06;4925064;28;103297;-71
2022/08/25 02:15:14;;;;;;;4.30;4.00;;;;;;;19.84;78.40;98712.06;4928177;28;103801;-71
2022/08/25 02:17:43;;;;;;;5.40;4.90;;;;;;;19.37;80.07;98714.53;4928205;28;102712;-71
2022/08/25 02:20:12;;;;;;;5.10;4.60;;;;;;;19.36;80.73;98712.88;4925102;28;103993;-71
2022/08/25 02:22:43;;;;;;;5.30;4.80;;;;;;;19.54;79.99;98712.72;4927763;28;104668;-71
2022/08/25 02:25:25;;;;;;;5.40;4.90;;;;;;;19.46;80.38;98713.56;4924417;28;105252;-71
2022/08/25 02:27:54;;;;;;;4.87;4.47;;;;;;;19.89;78.14;98712.41;4927440;28;102768;-71
2022/08/25 02:30:23;;;;;;;4.68;4.28;;;;;;;19.94;77.97;98707.34;4922139;28;102682;-71
2022/08/25 02:32:52;;;;;;;5.03;4.63;;;;;;;20.32;75.83;98710.34;4922412;28;105501;-71
2022/08/25 02:35:21;;;;;;;3.55;3.25;;;;;;;20.63;73.01;98705.88;4924135;28;103269;-71
2022/08/25 02:37:53;;;;;;;4.37;3.97;;;;;;;20.70;72.91;98712.22;4921896;28;102837;-71
2022/08/25 02:40:23;;;;;;;4.03;3.72;;;;;;;20.71;72.71;98705.84;4923494;28;102970;-71
2022/08/25 02:42:52;;;;;;;3.50;3.20;;;;;;;20.92;71.26;98703.38;4924633;28;102901;-71
2022/08/25 02:45:21;;;;;;;3.40;3.10;;;;;;;20.97;70.65;98711.72;4928664;28;103207;-71
2022/08/25 02:47:50;;;;;;;3.67;3.38;;;;;;;20.92;72.00;98714.13;4927335;28;102577;-71
2022/08/25 02:50:19;;;;;;;3.30;3.00;;;;;;;21.00;71.51;98706.00;4927967;28;103888;-71
2022/08/25 02:52:49;;;;;;;4.32;3.97;;;;;;;20.92;71.00;98708.75;4922404;28;103260;-71
2022/08/25 02:55:21;;;;;;;4.70;4.30;;;;;;;20.68;72.59;98700.81;4925613;28;103252;-71
2022/08/25 02:57:49;;;;;;;3.72;3.42;;;;;;;20.80;72.10;98707.44;4920138;28;102686;-71
2022/08/25 03:00:19;;;;;;;4.00;3.70;;;;;;;20.94;71.55;98706.72;4917217;28;103161;-71
2022/08/25 03:02:48;;;;;;;4.43;4.03;;;;;;;20.91;71.35;98700.88;4926587;28;104369;-71
2022/08/25 03:05:26;;;;;;;4.10;3.70;;;;;;;20.87;71.42;98705.75;5108433;27;102772;-70
2022/08/25 03:07:57;;;;;;;3.78;3.47;;;;;;;20.95;70.95;98697.66;5096729;27;102913;-70
2022/08/25 03:10:26;;;;;;;3.03;2.83;;;;;;;21.03;70.20;98700.28;5075960;27;103208;-70
2022/08/25 03:12:55;;;;;;;3.17;2.88;;;;;;;21.01;69.75;98696.94;5074707;27;103170;-71
2022/08/25 03:15:26;;;;;;;2.93;2.73;;;;;;;21.06;68.83;98699.09;5096574;27;103299;-71
2022/08/25 03:17:58;;;;;;;2.65;2.45;;;;;;;21.05;69.08;98695.56;5097081;27;102970;-71
2022/08/25 03:20:29;;;;;;;4.40;4.00;;;;;;;20.82;70.59;98694.72;5095815;27;103232;-70
2022/08/25 03:22:57;;;;;;;4.75;4.35;;;;;;;20.16;74.56;98695.91;5095159;27;103240;-70
2022/08/25 03:28:13;;;;;;;3.70;3.40;;;;;;;20.62;71.76;98696.13;5074794;27;102706;-70
2022/08/25 03:30:43;;;;;;;4.13;3.83;;;;;;;20.55;71.29;98693.31;5074208;27;103531;-70
2022/08/25 03:33:12;;;;;;;3.70;3.40;;;;;;;20.58;71.52;98700.16;5095711;27;103205;-70
2022/08/25 03:35:42;;;;;;;4.35;3.95;;;;;;;20.08;74.47;98698.63;5076398;27;102727;-70
2022/08/25 03:38:11;;;;;;;3.35;3.15;;;;;;;20.36;72.34;98701.75;5096412;27;102658;-71
2022/08/25 03:40:40;;;;;;;4.53;4.10;;;;;;;20.32;73.42;98704.97;5092621;27;104467;-70
2022/08/25 03:43:09;;;;;;;4.10;3.70;;;;;;;20.25;73.13;98704.81;5076673;27;103515;-71
2022/08/25 03:45:41;;;;;;;4.47;4.10;;;;;;;20.16;74.14;98706.66;5095410;27;102636;-70
2022/08/25 03:48:10;;;;;;;3.30;3.10;;;;;;;20.28;73.43;98709.00;5076412;27;102681;-71
2022/08/25 03:50:46;;;;;;;5.00;4.50;;;;;;;20.20;73.78;98691.06;5074941;27;103283;-70
2022/08/25 03:53:19;;;;;;;3.95;3.65;;;;;;;19.99;74.30;98696.97;5094296;27;103131;-70
2022/08/25 03:55:50;;;;;;;4.72;4.32;;;;;;;19.96;74.65;98694.59;5093083;27;103035;-71
2022/08/25 03:58:20;;;;;;;5.33;4.83;;;;;;;19.46;77.53;98696.66;5093454;27;102823;-70
2022/08/25 04:00:49;;;;;;;5.55;5.05;;;;;;;19.36;77.47;98691.44;5093412;27;103219;-71
2022/08/25 04:03:19;;;;;;;4.82;4.43;;;;;;;19.64;76.36;98686.63;5094188;27;103664;-71
2022/08/25 04:05:50;;;;;;;3.75;3.45;;;;;;;19.95;74.11;98684.06;5095770;27;103239;-70
2022/08/25 04:08:19;;;;;;;4.55;4.00;;;;;;;19.99;74.08;98685.38;5094942;27;102702;-70
2022/08/25 04:10:48;;;;;;;4.40;4.00;;;;;;;19.90;74.22;98692.59;5076512;27;103466;-71
2022/08/25 04:13:18;;;;;;;4.78;4.38;;;;;;;19.81;75.06;98684.75;5094328;27;103288;-70
2022/08/25 04:15:48;;;;;;;6.10;5.50;;;;;;;19.39;77.09;98674.22;5087098;27;103577;-70
2022/08/25 04:18:17;;;;;;;5.18;4.78;;;;;;;19.38;78.49;98688.56;5081521;27;102706;-71
2022/08/25 04:20:47;;;;;;;3.60;3.30;;;;;;;19.77;75.37;98678.03;5081554;27;103303;-71
2022/08/25 04:23:18;;;;;;;3.85;3.45;;;;;;;19.99;73.86;98685.38;5072439;27;103730;-70
2022/08/25 04:25:47;;;;;;;3.80;3.50;;;;;;;20.04;73.45;98691.91;5081246;27;102725;-71
2022/08/25 04:28:17;;;;;;;5.15;4.65;;;;;;;19.53;77.00;98693.16;5078934;27;102680;-70
2022/08/25 04:30:45;;;;;;;3.70;3.40;;;;;;;19.76;74.88;98704.00;5081159;27;104127;-71
2022/08/25 04:33:19;;;;;;;4.03;3.60;;;;;;;19.95;73.40;98692.13;5060358;27;103105;-70
2022/08/25 04:35:49;;;;;;;5.40;4.50;;;;;;;19.94;74.05;98688.59;5080296;27;102907;-71
2022/08/25 04:38:20;;;;;;;4.95;4.47;;;;;;;19.65;75.50;98697.16;5081610;27;102636;-70
2022/08/25 04:40:56;;;;;;;5.75;5.18;;;;;;;19.52;76.28;98696.00;5078437;27;103350;-70
2022/08/25 04:43:25;;;;;;;5.03;4.63;;;;;;;19.42;76.49;98700.69;5080567;27;102979;-71
2022/08/25 04:45:54;;;;;;;6.05;5.55;;;;;;;19.34;77.68;98695.28;5062827;27;102766;-70
2022/08/25 04:48:24;;;;;;;5.05;4.53;;;;;;;19.47;76.94;98687.63;5078331;27;103830;-70
2022/08/25 04:50:54;;;;;;;4.70;4.32;;;;;;;19.64;76.43;98697.34;5080141;27;103504;-71
2022/08/25 04:53:24;;;;;;;4.67;4.27;;;;;;;19.76;75.91;98697.84;5080346;27;103385;-70
2022/08/25 04:55:53;;;;;;;7.03;6.40;;;;;;;19.48;77.74;98695.47;5059072;27;102642;-70
2022/08/25 04:58:22;;;;;;;5.30;4.88;;;;;;;19.67;76.22;98697.00;5079799;27;103665;-70
2022/08/25 05:00:51;;;;;;;6.63;5.90;;;;;;;19.79;76.51;98706.34;5061421;27;103443;-70
2022/08/25 05:03:20;;;;;;;4.32;3.92;;;;;;;19.84;74.97;98701.34;5079942;27;103248;-70
2022/08/25 05:05:52;;;;;;;4.38;3.97;;;;;;;20.01;74.24;98708.38;5078811;27;102899;-70
2022/08/25 05:08:23;;;;;;;5.93;5.30;;;;;;;19.99;74.54;98705.00;5080669;27;104251;-70
2022/08/25 05:10:55;;;;;;;6.25;5.65;;;;;;;19.76;75.68;98705.88;5080196;27;103297;-70
2022/08/25 05:13:25;;;;;;;3.92;3.63;;;;;;;20.05;74.33;98703.47;5077770;27;103203;-71
2022/08/25 05:15:56;;;;;;;4.40;4.00;;;;;;;20.23;73.95;98696.91;5080696;27;102974;-70
2022/08/25 05:18:29;;;;;;;4.05;3.75;;;;;;;20.34;73.06;98702.94;5080901;27;104117;-71
2022/08/25 05:21:02;;;;;;;4.75;4.35;;;;;;;20.28;72.45;98690.22;5078461;27;103502;-70
2022/08/25 05:23:33;;;;;;;4.43;3.92;;;;;;;20.37;72.05;98690.03;5080218;27;103282;-70
2022/08/25 05:26:05;;;;;;;4.35;4.05;;;;;;;20.35;72.54;98688.53;5080921;27;102980;-70
2022/08/25 05:28:35;;;;;;;4.60;4.20;;;;;;;20.43;72.36;98688.50;5076865;27;102616;-71
2022/08/25 05:31:05;;;;;;;7.82;5.15;;;;;;;20.45;73.14;98683.78;5061116;27;103921;-70
2022/08/25 05:33:35;;;;;;;3.80;3.50;;;;;;;20.55;72.37;98689.78;5079773;27;103344;-70
2022/08/25 05:36:05;;;;;;;3.70;3.40;;;;;;;20.69;71.52;98689.06;5059151;27;102668;-70
2022/08/25 05:38:35;;;;;;;4.07;3.70;;;;;;;20.80;72.22;98689.50;5080577;27;102994;-71
2022/08/25 05:41:07;;;;;;;4.60;4.20;;;;;;;20.87;72.63;98689.66;5059262;27;103488;-70
2022/08/25 05:43:37;;;;;;;3.90;3.60;;;;;;;20.97;71.77;98690.25;5079395;27;103221;-70
2022/08/25 05:46:06;;;;;;;3.42;3.13;;;;;;;21.06;70.92;98689.19;5061092;27;103350;-70
2022/08/25 05:48:36;;;;;;;4.30;3.90;;;;;;;21.09;71.10;98683.50;5077988;27;102808;-70
2022/08/25 05:51:07;;;;;;;5.13;4.70;;;;;;;21.03;71.88;98689.53;5079534;27;103604;-70
2022/08/25 05:53:43;;;;;;;3.90;3.60;;;;;;;21.04;71.77;98685.00;5080027;27;103215;-70
2022/08/25 05:56:14;;;;;;;4.97;4.47;;;;;;;20.96;72.51;98677.00;5080760;27;104066;-70
2022/08/25 05:58:44;;;;;;;5.38;4.88;;;;;;;21.05;71.58;98679.44;5076659;27;102951;-70
2022/08/25 06:04:12;;;;;;;4.03;3.73;;;;;;;21.13;71.33;98681.31;5078557;27;103228;-70
2022/08/25 06:06:41;;;;;;;6.17;5.57;;;;;;;21.07;72.06;98669.44;5077380;27;102676;-70
2022/08/25 06:09:12;;;;;;;6.43;5.82;;;;;;;21.05;72.74;98675.97;5062009;27;103197;-71
2022/08/25 06:11:41;;;;;;;6.90;6.00;;;;;;;20.90;73.51;98675.88;5059034;27;103598;-70
2022/08/25 06:14:11;;;;;;;6.82;5.68;;;;;;;20.98;73.24;98669.59;5079384;27;103277;-70
2022/08/25 06:16:40;;;;;;;6.80;6.17;;;;;;;21.15;72.88;98682.78;5077484;27;102823;-70
2022/08/25 06:19:10;;;;;;;9.93;6.38;;;;;;;21.28;72.25;98672.28;5079902;27;102958;-70
2022/08/25 06:21:40;;;;;;;5.68;5.18;;;;;;;21.64;71.16;98682.44;5060793;27;105133;-70
2022/08/25 06:24:13;;;;;;;6.23;5.63;;;;;;;21.83;70.60;98672.00;5078530;27;103236;-70
2022/08/25 06:26:43;;;;;;;6.45;5.95;;;;;;;21.95;69.98;98672.44;5061915;27;103018;-70
2022/08/25 06:29:13;;;;;;;6.87;6.23;;;;;;;21.94;70.93;98674.28;5077021;27;102849;-70
2022/08/25 06:31:42;;;;;;;6.00;5.50;;;;;;;22.13;70.66;98678.28;5078740;27;103285;-73
2022/08/25 06:34:12;;;;;;;7.63;6.93;;;;;;;22.21;69.96;98677.34;5060180;27;103348;-70
2022/08/25 06:36:41;;;;;;;5.30;4.90;;;;;;;22.35;69.07;98676.53;5079265;27;102609;-70
2022/08/25 06:39:17;;;;;;;6.20;5.65;;;;;;;22.51;69.40;98676.34;5079365;27;103595;-70
2022/08/25 06:41:45;;;;;;;6.60;5.93;;;;;;;22.45;69.97;98677.09;5078708;27;104109;-70
2022/08/25 06:44:17;;;;;;;7.57;6.88;;;;;;;22.56;69.77;98673.09;5078702;27;103153;-70
2022/08/25 06:46:47;;;;;;;7.60;6.93;;;;;;;22.44;69.98;98670.88;5077425;27;102619;-70
2022/08/25 06:49:16;;;;;;;5.53;5.03;;;;;;;22.82;69.00;98674.28;5078908;27;104060;-70
2022/08/25 06:51:49;;;;;;;7.00;6.40;;;;;;;22.98;68.44;98670.53;5079231;27;103649;-70
2022/08/25 06:54:20;;;;;;;7.75;7.05;;;;;;;23.06;68.07;98665.03;5076128;27;103586;-70
2022/08/25 06:56:50;;;;;;;7.72;6.93;;;;;;;23.08;67.68;98668.34;5078515;27;102562;-62
2022/08/25 06:59:22;;;;;;;7.22;6.47;;;;;;;23.42;66.99;98673.94;5074015;27;103211;-61
2022/08/25 07:01:59;;;;;;;7.57;6.88;;;;;;;23.57;66.12;98668.47;5077711;27;102940;-61
2022/08/25 07:04:30;;;;;;;7.80;7.07;;;;;;;23.49;66.52;98666.75;5075646;27;103199;-61
2022/08/25 07:06:59;;;;;;;6.20;5.70;;;;;;;23.82;65.99;98660.78;5079361;27;102695;-61
2022/08/25 07:09:29;;;;;;;7.93;6.80;;;;;;;23.27;66.81;98662.34;5078812;27;102809;-61
2022/08/25 07:11:58;;;;;;;7.38;6.57;;;;;;;23.56;66.75;98651.47;5078125;27;103243;-61
2022/08/25 07:14:27;;;;;;;6.77;6.13;;;;;;;24.04;65.90;98648.91;5078280;27;103437;-61
2022/08/25 07:16:56;;;;;;;6.90;6.30;;;;;;;23.58;67.02;98653.94;5059445;27;102711;-61
2022/08/25 07:19:27;;;;;;;7.40;6.67;;;;;;;23.25;67.41;98659.00;5060370;27;103168;-61
2022/08/25 07:21:56;;;;;;;9.80;6.90;;;;;;;23.21;67.88;98663.13;5077655;27;103324;-61
2022/08/25 07:24:25;;;;;;;7.07;6.43;;;;;;;23.60;66.33;98652.75;5077871;27;103306;-61
2022/08/25 07:26:55;;;;;;;7.35;6.28;;;;;;;23.97;66.34;98642.66;5075415;27;102580;-61
2022/08/25 07:29:28;;;;;;;9.02;8.23;;;;;;;24.57;64.86;98645.53;5074216;27;102925;-61
2022/08/25 07:32:01;;;;;;;9.67;8.73;;;;;;;24.89;63.30;98648.59;5056721;27;104000;-64
2022/08/25 07:37:23;;;;;;;6.00;5.30;;;;;;;25.65;61.41;98637.31;5077558;27;102684;-64
2022/08/25 07:40:16;;;;;;;7.00;6.00;;;;;;;25.64;60.43;98635.66;5078772;27;102705;-64
2022/08/25 07:42:48;;;;;;;6.50;5.85;;;;;;;25.64;60.92;98637.50;5075363;27;103409;-64
2022/08/25 07:45:18;;;;;;;6.40;5.80;;;;;;;26.03;60.17;98637.50;5077221;27;103490;-63
2022/08/25 07:47:52;;;;;;;6.18;5.57;;;;;;;26.49;58.21;98637.41;5076498;27;102963;-64
2022/08/25 07:50:26;;;;;;;7.05;6.20;;;;;;;26.65;57.87;98633.38;5079281;27;102635;-64
2022/08/25 07:52:56;;;;;;;6.82;5.60;;;;;;;26.82;57.29;98634.59;5078139;27;103631;-64
2022/08/25 07:55:31;;;;;;;5.78;5.28;;;;;;;27.14;56.24;98635.47;5062339;27;103179;-64
2022/08/25 07:58:01;;;;;;;6.07;5.55;;;;;;;27.48;55.01;98632.38;5079142;27;102924;-64
2022/08/25 08:00:32;;;;;;;6.68;6.00;;;;;;;27.46;55.00;98634.44;5080684;27;102708;-64
2022/08/25 08:03:05;;;;;;;6.07;5.47;;;;;;;27.79;53.45;98637.72;5079876;27;104575;-64
2022/08/25 08:05:37;;;;;;;6.10;5.60;;;;;;;27.75;54.06;98636.53;5079682;27;103527;-64
2022/08/25 08:08:05;;;;;;;6.57;5.97;;;;;;;26.51;57.06;98640.75;5078741;27;103158;-64
2022/08/25 08:10:38;;;;;;;6.32;5.72;;;;;;;27.66;54.04;98640.56;5063683;27;102814;-64
2022/08/25 08:13:29;;;;;;;5.97;5.47;;;;;;;27.37;54.78;98630.34;5077560;27;104265;-65
2022/08/25 08:15:58;;;;;;;6.33;5.80;;;;;;;28.59;52.14;98633.19;5080395;27;103420;-64
2022/08/25 08:18:27;;;;;;;5.90;5.38;;;;;;;29.27;51.03;98631.91;5061895;27;102733;-65
2022/08/25 08:20:56;;;;;;;6.60;5.70;;;;;;;28.96;51.28;98643.00;5081071;27;103996;-71
2022/08/25 08:23:27;;;;;;;6.43;5.83;;;;;;;28.69;50.94;98630.78;5080536;27;103269;-71
2022/08/25 08:25:57;;;;;;;5.57;5.07;;;;;;;29.81;49.74;98627.31;5080705;27;104006;-71
2022/08/25 08:28:26;;;;;;;5.80;5.30;;;;;;;29.73;49.29;98627.59;5060168;27;103037;-71
2022/08/25 08:30:57;;;;;;;5.65;5.15;;;;;;;29.78;49.33;98617.66;5080791;27;103884;-71
2022/08/25 08:33:27;;;;;;;5.60;5.10;;;;;;;29.42;49.08;98630.66;5080599;27;104058;-71
2022/08/25 08:35:58;;;;;;;6.35;5.85;;;;;;;28.69;50.69;98630.78;5080294;27;103271;-71
2022/08/25 08:38:32;;;;;;;6.40;5.70;;;;;;;29.27;49.51;98617.47;5081621;27;102932;-72
2022/08/25 08:44:32;;;;;;;5.27;4.87;;;;;;;30.38;47.00;98610.13;5076869;27;103360;-65
2022/08/25 08:47:14;;;;;;;6.27;5.67;;;;;;;30.61;46.50;98606.53;5077633;27;103270;-65
2022/08/25 08:49:52;;;;;;;5.70;5.20;;;;;;;29.59;49.48;98616.13;5060570;27;102870;-65
2022/08/25 08:52:29;;;;;;;5.82;5.32;;;;;;;30.76;46.11;98614.19;5059820;27;102644;-65
2022/08/25 08:55:03;;;;;;;5.07;4.65;;;;;;;31.09;45.02;98610.78;5080525;27;103502;-65
2022/08/25 08:57:38;;;;;;;5.90;5.30;;;;;;;31.45;44.83;98602.97;5077021;27;103525;-65
2022/08/25 09:00:09;;;;;;;5.83;5.23;;;;;;;31.85;44.37;98599.28;5077495;27;102759;-65
2022/08/25 09:02:44;;;;;;;5.68;5.18;;;;;;;31.72;45.04;98605.09;5080836;27;103163;-65
2022/08/25 09:05:22;;;;;;;6.00;5.53;;;;;;;31.55;44.21;98611.34;5079072;27;103265;-65
2022/08/25 09:07:57;;;;;;;5.63;5.20;;;;;;;32.06;43.47;98601.28;5059291;27;103253;-65
2022/08/25 09:10:33;;;;;;;5.50;5.00;;;;;;;32.47;42.50;98600.78;5076944;27;102821;-65
2022/08/25 09:13:13;;;;;;;5.65;5.10;;;;;;;32.79;43.30;98602.84;5079930;27;102671;-66
2022/08/25 09:18:56;;;;;;;5.57;5.05;;;;;;;32.72;41.24;98597.56;5078197;27;103456;-72
2022/08/25 09:21:34;;;;;;;5.20;4.70;;;;;;;30.66;43.44;98597.63;5059813;27;103163;-72
2022/08/25 09:24:27;;;;;;;5.13;4.63;;;;;;;30.66;44.52;98594.88;5079038;27;104168;-66
2022/08/25 09:27:09;;;;;;;5.25;4.82;;;;;;;31.51;43.24;98588.38;5077523;27;103435;-65
2022/08/25 09:29:53;;;;;;;5.68;5.18;;;;;;;32.11;41.68;98588.50;5075350;27;103203;-66
2022/08/25 09:32:23;;;;;;;5.20;4.70;;;;;;;32.64;41.50;98585.16;5078322;27;102645;-72
2022/08/25 09:35:02;;;;;;;5.43;4.93;;;;;;;32.56;41.07;98577.38;5077708;27;102679;-72
2022/08/25 09:37:32;;;;;;;4.70;4.30;;;;;;;33.12;40.47;98578.06;5060183;27;103461;-72
2022/08/25 09:40:01;;;;;;;5.07;4.68;;;;;;;33.37;39.81;98578.28;5077045;27;103259;-72
2022/08/25 09:42:48;;;;;;;5.23;4.73;;;;;;;31.85;42.97;98581.00;5080295;27;102912;-71
2022/08/25 09:45:35;;;;;;;5.10;4.70;;;;;;;31.73;41.24;98582.16;5077930;27;103906;-72
2022/08/25 09:48:20;;;;;;;5.18;4.78;;;;;;;31.30;42.70;98575.41;5079714;27;103570;-72
2022/08/25 09:50:54;;;;;;;4.93;4.53;;;;;;;32.25;41.24;98575.34;5077177;27;103272;-72
2022/08/25 09:53:24;;;;;;;4.60;4.20;;;;;;;33.19;39.20;98578.66;5079971;27;103185;-72
2022/08/25 09:55:59;;;;;;;5.00;4.60;;;;;;;32.83;38.86;98573.88;5079844;27;102806;-72
2022/08/25 09:58:28;;;;;;;4.88;4.38;;;;;;;32.84;39.34;98575.53;5053977;27;103415;-72
2022/08/25 10:01:13;;;;;;;5.33;4.83;;;;;;;33.10;39.31;98566.53;5078354;27;103316;-72
2022/08/25 10:03:58;;;;;;;5.38;4.30;;;;;;;31.69;42.38;98567.38;5075623;27;102812;-72
2022/08/25 10:06:33;;;;;;;5.15;4.63;;;;;;;33.08;39.42;98555.84;5077787;27;102868;-72
2022/08/25 10:09:06;;;;;;;4.78;4.43;;;;;;;33.59;38.87;98557.16;5078843;27;103207;-72
2022/08/25 10:11:40;;;;;;;4.93;4.47;;;;;;;33.93;38.03;98554.09;5078698;27;103185;-72
2022/08/25 10:14:26;;;;;;;5.18;4.78;;;;;;;33.34;38.37;98554.19;5078647;27;102801;-72
2022/08/25 10:17:15;;;;;;;5.88;4.97;;;;;;;33.98;37.97;98543.16;5079043;27;103028;-72
2022/08/25 10:19:44;;;;;;;4.93;4.30;;;;;;;32.50;39.39;98547.50;5079332;27;103126;-72
2022/08/25 10:22:23;;;;;;;4.50;4.10;;;;;;;33.31;37.75;98548.38;5076824;27;103719;-69
2022/08/25 10:24:52;;;;;;;4.53;4.13;;;;;;;33.63;37.61;98546.50;5077332;27;103252;-72
2022/08/25 10:27:28;;;;;;;4.80;4.40;;;;;;;31.66;40.07;98533.19;5077935;27;102979;-72
2022/08/25 10:30:17;;;;;;;5.03;4.60;;;;;;;32.50;39.79;98531.91;5055995;27;103947;-69
2022/08/25 10:33:12;;;;;;;5.32;4.60;;;;;;;32.95;38.82;98534.34;5077414;27;103200;-69
2022/08/25 10:35:57;;;;;;;5.00;4.60;;;;;;;33.55;38.02;98522.28;5077813;27;102807;-69
2022/08/25 10:38:40;;;;;;;4.40;4.00;;;;;;;33.87;36.51;98519.53;5079726;27;104252;-72
2022/08/25 10:41:30;;;;;;;4.90;4.40;;;;;;;34.08;37.05;98513.13;5075093;27;103980;-71
2022/08/25 10:45:41;;;;;;;4.93;4.43;;;;;;;33.20;38.26;98517.38;5078807;27;103294;-72
2022/08/25 10:47:16;;;;;;;5.18;4.78;;;;;;;31.60;40.60;98508.78;5077362;27;102957;-72
2022/08/25 10:49:48;;;;;;;6.40;4.70;;;;;;;31.95;40.48;98501.09;5078292;27;102877;-72
2022/08/25 10:52:24;;;;;;;4.50;4.20;;;;;;;33.68;38.56;98499.97;5057890;27;104352;-72
2022/08/25 10:54:59;;;;;;;4.97;4.57;;;;;;;34.05;38.06;98494.44;5075787;27;103801;-72
2022/08/25 10:57:34;;;;;;;5.15;4.75;;;;;;;34.06;38.32;98487.84;5077169;27;102777;-71
2022/08/25 11:00:09;;;;;;;5.10;4.60;;;;;;;33.46;39.07;98486.34;5078340;27;103176;-72
2022/08/25 11:03:01;;;;;;;4.80;4.40;;;;;;;34.12;37.34;98486.81;5056634;27;103435;-72
2022/08/25 11:05:39;;;;;;;5.82;4.93;;;;;;;34.34;37.39;98482.78;5076890;27;103226;-72
2022/08/25 11:08:14;;;;;;;4.93;4.53;;;;;;;34.44;36.79;98473.78;5077161;27;103112;-72
2022/08/25 11:10:48;;;;;;;5.22;4.72;;;;;;;33.55;38.50;98483.94;5076619;27;103759;-72
2022/08/25 11:13:24;;;;;;;5.00;4.60;;;;;;;34.13;37.76;98477.50;5075806;27;103287;-72
2022/08/25 11:15:59;;;;;;;4.90;4.50;;;;;;;33.10;38.75;98476.22;5077907;27;103497;-71
2022/08/25 11:18:53;;;;;;;4.68;4.38;;;;;;;33.78;36.27;98467.16;5077739;27;103294;-72
2022/08/25 11:21:28;;;;;;;4.85;4.20;;;;;;;33.52;37.44;98468.03;5058948;27;103351;-72
2022/08/25 11:24:05;;;;;;;4.53;4.20;;;;;;;33.93;37.15;98463.69;5076286;27;103640;-72
2022/08/25 11:26:44;;;;;;;5.20;4.70;;;;;;;33.73;36.99;98465.22;5079787;27;103372;-72
2022/08/25 11:29:17;;;;;;;4.85;4.20;;;;;;;34.75;35.85;98458.25;5076377;27;103146;-72
2022/08/25 11:31:49;;;;;;;4.60;4.20;;;;;;;35.38;35.22;98460.47;5082059;27;102878;-71
2022/08/25 11:34:22;;;;;;;4.45;4.05;;;;;;;34.39;36.24;98463.63;5076908;27;103258;-67
2022/08/25 11:36:55;;;;;;;4.82;4.32;;;;;;;34.49;36.17;98457.34;5080979;27;103475;-66
2022/08/25 11:39:39;;;;;;;4.35;3.95;;;;;;;33.35;37.26;98446.31;5082202;27;103038;-66
2022/08/25 11:42:21;;;;;;;4.57;4.15;;;;;;;34.32;36.38;98448.53;5063014;27;104189;-64
2022/08/25 11:45:04;;;;;;;4.22;3.92;;;;;;;35.17;34.81;98447.06;5079394;27;103372;-64
2022/08/25 11:47:45;;;;;;;4.55;4.15;;;;;;;34.82;35.71;98448.66;5079968;27;103355;-64
2022/08/25 11:50:30;;;;;;;3.90;3.50;;;;;;;35.30;34.17;98451.97;5080775;27;102699;-64
2022/08/25 11:53:16;;;;;;;4.05;3.67;;;;;;;35.64;33.72;98454.97;5081499;27;103278;-65
2022/08/25 11:55:50;;;;;;;4.40;4.00;;;;;;;32.83;37.31;98450.78;5063250;27;104090;-64
2022/08/25 11:58:34;;;;;;;4.10;3.80;;;;;;;33.74;36.58;98444.16;5059124;27;103206;-65
2022/08/25 12:01:05;;;;;;;3.95;3.65;;;;;;;34.64;34.87;98438.19;5080795;27;102800;-65
2022/08/25 12:03:52;;;;;;;3.72;3.42;;;;;;;34.03;35.77;98439.03;5081440;27;102789;-65
2022/08/25 12:06:26;;;;;;;3.85;3.55;;;;;;;34.19;36.37;98441.59;5080392;27;103258;-64